Hovedside
METAR-TAF:

METAR-TAF

Lufthavner :

Helsingfors-Vanda lufthavn

Helsingfors, Finland

breddegrad: 60-19N, lengdegrad: 024-58E, høyde over havet: 51 m

Gjeldene værobservasjon

Denne rapporten ble laget for 27 minutter siden, klokken 17:20 UTC
Vind 12 kt fra Sør-sørvest
Temperatur 16°C
Luftfuktighet 48%
Trykk 1010 hPa
Sikt 10 km eller mer
Få skyer i en høyde av 4800 ft

METAR: EFHK 231720Z 21012KT 9999 FEW048 16/05 Q1010 NOSIG

Tid: 20:47 (17:47 UTC)

Varsel

Denne rapporten ble laget for 17 minutter siden, klokken 17:30 UTC
Varsel gyldig fra 23. klokken 18 UTC til 24. klokken 18 UTC
Vind 13 kt fra Sør-sørvest
Sikt 10 km eller mer
ingen skyer under 1500 m og ingen bygeskyer
Blir
fra 23. klokken 20 UTC til 23. klokken 22 UTC
Vind 5 kt fra Vest-nordvest
Blir
fra 24. klokken 06 UTC til 24. klokken 08 UTC
Vind 10 kt fra Nord

TAF: EFHK 231730Z 2318/2418 21013KT CAVOK BECMG 2320/2322 30005KT BECMG 2406/2408 01010KT

Værobservasjoner og værvarsel for over 4000 flyplasser (METAR- og TAF-rapporter).

Tilgjengelige stasjoner er representert av de røde og gule prikkene på kartet.

Hold musepekeren over prikken for å se navnet på stasjonen.

Klikk så for å se værobservasjoner og -varsler.

For å forandre kartet kan du klikke på den grønne knappen med svart kryss for å zoome inn, på den grønne knappen med strek for å zoome ut, eller på de grønne pilene for å se tilstøtende kart.


METAR-TAF: